sensor_id;sensor_type;location;lat;lon;timestamp;pressure;altitude;pressure_sealevel;temperature;humidity
58622;BME280;44389;51.578;5.456;2023-05-01T00:01:38;101629.31;;;10.12;88.76
58622;BME280;44389;51.578;5.456;2023-05-01T00:04:03;101625.19;;;10.15;88.15
58622;BME280;44389;51.578;5.456;2023-05-01T00:06:29;101625.19;;;10.15;87.38
58622;BME280;44389;51.578;5.456;2023-05-01T00:08:56;101621.78;;;10.16;87.28
58622;BME280;44389;51.578;5.456;2023-05-01T00:11:21;101612.50;;;10.20;87.60
58622;BME280;44389;51.578;5.456;2023-05-01T00:13:48;101608.34;;;10.24;87.72
58622;BME280;44389;51.578;5.456;2023-05-01T00:16:14;101604.03;;;10.23;86.51
58622;BME280;44389;51.578;5.456;2023-05-01T00:18:41;101597.16;;;10.23;87.20
58622;BME280;44389;51.578;5.456;2023-05-01T00:21:06;101596.31;;;10.23;87.54
58622;BME280;44389;51.578;5.456;2023-05-01T00:23:31;101596.16;;;10.19;88.11
58622;BME280;44389;51.578;5.456;2023-05-01T00:25:56;101592.88;;;10.24;87.51
58622;BME280;44389;51.578;5.456;2023-05-01T00:28:22;101592.13;;;10.26;87.10
58622;BME280;44389;51.578;5.456;2023-05-01T00:30:47;101584.97;;;10.19;87.85
58622;BME280;44389;51.578;5.456;2023-05-01T00:33:13;101579.94;;;10.22;87.54
58622;BME280;44389;51.578;5.456;2023-05-01T00:35:38;101577.31;;;10.20;87.85
58622;BME280;44389;51.578;5.456;2023-05-01T00:38:03;101579.84;;;10.19;88.27
58622;BME280;44389;51.578;5.456;2023-05-01T00:40:29;101576.34;;;10.18;87.88
58622;BME280;44389;51.578;5.456;2023-05-01T00:42:55;101578.81;;;10.15;87.66
58622;BME280;44389;51.578;5.456;2023-05-01T00:45:20;101576.19;;;10.14;88.38
58622;BME280;44389;51.578;5.456;2023-05-01T00:47:46;101573.38;;;10.09;88.75
58622;BME280;44389;51.578;5.456;2023-05-01T00:50:12;101570.75;;;10.08;88.24
58622;BME280;44389;51.578;5.456;2023-05-01T00:52:38;101569.72;;;10.04;89.53
58622;BME280;44389;51.578;5.456;2023-05-01T00:55:04;101563.72;;;10.03;87.81
58622;BME280;44389;51.578;5.456;2023-05-01T00:57:30;101554.16;;;10.01;88.54
58622;BME280;44389;51.578;5.456;2023-05-01T00:59:55;101556.78;;;10.02;88.44
58622;BME280;44389;51.578;5.456;2023-05-01T01:02:21;101560.06;;;9.98;88.63
58622;BME280;44389;51.578;5.456;2023-05-01T01:04:47;101550.50;;;9.96;88.64
58622;BME280;44389;51.578;5.456;2023-05-01T01:07:36;101545.41;;;9.97;89.10
58622;BME280;44389;51.578;5.456;2023-05-01T01:10:22;101548.75;;;9.95;89.10
58622;BME280;44389;51.578;5.456;2023-05-01T01:13:05;101541.69;;;9.91;90.04
58622;BME280;44389;51.578;5.456;2023-05-01T01:15:49;101542.44;;;9.88;91.17
58622;BME280;44389;51.578;5.456;2023-05-01T01:18:40;101539.81;;;9.86;91.62
58622;BME280;44389;51.578;5.456;2023-05-01T01:21:11;101532.63;;;9.79;92.29
58622;BME280;44389;51.578;5.456;2023-05-01T01:32:10;101520.03;;;9.66;92.90
58622;BME280;44389;51.578;5.456;2023-05-01T01:34:54;101515.53;;;9.62;92.71
58622;BME280;44389;51.578;5.456;2023-05-01T01:37:28;101513.72;;;9.59;92.71
58622;BME280;44389;51.578;5.456;2023-05-01T01:40:02;101507.63;;;9.57;92.53
58622;BME280;44389;51.578;5.456;2023-05-01T01:42:39;101505.19;;;9.60;91.87
58622;BME280;44389;51.578;5.456;2023-05-01T01:45:09;101501.59;;;9.56;90.87
58622;BME280;44389;51.578;5.456;2023-05-01T01:47:40;101494.72;;;9.55;90.96
58622;BME280;44389;51.578;5.456;2023-05-01T01:50:06;101495.50;;;9.54;92.16
58622;BME280;44389;51.578;5.456;2023-05-01T01:52:34;101486.09;;;9.55;90.93
58622;BME280;44389;51.578;5.456;2023-05-01T01:55:07;101496.38;;;9.55;91.48
58622;BME280;44389;51.578;5.456;2023-05-01T01:57:35;101491.16;;;9.53;92.09
58622;BME280;44389;51.578;5.456;2023-05-01T02:00:04;101479.06;;;9.51;93.78
58622;BME280;44389;51.578;5.456;2023-05-01T02:02:33;101490.09;;;9.48;94.49
58622;BME280;44389;51.578;5.456;2023-05-01T02:05:01;101480.53;;;9.46;96.60
58622;BME280;44389;51.578;5.456;2023-05-01T02:07:28;101477.97;;;9.46;97.19
58622;BME280;44389;51.578;5.456;2023-05-01T02:09:53;101476.88;;;9.41;96.80
58622;BME280;44389;51.578;5.456;2023-05-01T02:12:20;101474.31;;;9.41;97.14
58622;BME280;44389;51.578;5.456;2023-05-01T02:14:47;101469.09;;;9.39;96.67
58622;BME280;44389;51.578;5.456;2023-05-01T02:17:16;101467.41;;;9.39;94.58
58622;BME280;44389;51.578;5.456;2023-05-01T02:19:44;101463.97;;;9.39;94.47
58622;BME280;44389;51.578;5.456;2023-05-01T02:22:10;101458.94;;;9.42;93.05
58622;BME280;44389;51.578;5.456;2023-05-01T02:24:37;101466.72;;;9.44;92.92
58622;BME280;44389;51.578;5.456;2023-05-01T02:27:09;101464.75;;;9.58;92.05
58622;BME280;44389;51.578;5.456;2023-05-01T02:29:35;101458.25;;;9.46;92.44
58622;BME280;44389;51.578;5.456;2023-05-01T02:32:00;101460.69;;;9.43;93.61
58622;BME280;44389;51.578;5.456;2023-05-01T02:34:26;101458.13;;;9.43;94.71
58622;BME280;44389;51.578;5.456;2023-05-01T02:36:52;101440.81;;;9.39;95.79
58622;BME280;44389;51.578;5.456;2023-05-01T02:39:17;101445.88;;;9.37;97.16
58622;BME280;44389;51.578;5.456;2023-05-01T02:41:44;101439.72;;;9.34;97.57
58622;BME280;44389;51.578;5.456;2023-05-01T02:44:11;101445.72;;;9.34;97.28
58622;BME280;44389;51.578;5.456;2023-05-01T02:46:37;101435.38;;;9.33;96.20
58622;BME280;44389;51.578;5.456;2023-05-01T02:49:07;101430.19;;;9.31;97.00
58622;BME280;44389;51.578;5.456;2023-05-01T02:51:34;101434.31;;;9.28;97.20
58622;BME280;44389;51.578;5.456;2023-05-01T02:53:59;101427.38;;;9.27;97.11
58622;BME280;44389;51.578;5.456;2023-05-01T02:56:25;101429.03;;;9.25;98.13
58622;BME280;44389;51.578;5.456;2023-05-01T02:58:52;101416.91;;;9.22;98.32
58622;BME280;44389;51.578;5.456;2023-05-01T03:01:17;101415.09;;;9.19;97.62
58622;BME280;44389;51.578;5.456;2023-05-01T03:03:42;101417.72;;;9.21;97.11
58622;BME280;44389;51.578;5.456;2023-05-01T03:06:08;101409.94;;;9.19;97.43
58622;BME280;44389;51.578;5.456;2023-05-01T03:08:33;101409.78;;;9.16;98.20
58622;BME280;44389;51.578;5.456;2023-05-01T03:10:59;101409.59;;;9.12;98.39
58622;BME280;44389;51.578;5.456;2023-05-01T03:13:24;101411.28;;;9.11;98.86
58622;BME280;44389;51.578;5.456;2023-05-01T03:15:49;101403.50;;;9.10;99.25
58622;BME280;44389;51.578;5.456;2023-05-01T03:18:14;101401.72;;;9.09;99.63
58622;BME280;44389;51.578;5.456;2023-05-01T03:20:40;101401.78;;;9.10;99.96
58622;BME280;44389;51.578;5.456;2023-05-01T03:23:05;101399.91;;;9.06;100.00
58622;BME280;44389;51.578;5.456;2023-05-01T03:25:31;101391.25;;;9.04;100.00
58622;BME280;44389;51.578;5.456;2023-05-01T03:27:57;101397.28;;;9.04;100.00
58622;BME280;44389;51.578;5.456;2023-05-01T03:30:22;101386.94;;;9.03;99.07
58622;BME280;44389;51.578;5.456;2023-05-01T03:32:47;101390.38;;;9.03;99.85
58622;BME280;44389;51.578;5.456;2023-05-01T03:35:13;101383.41;;;9.01;100.00
58622;BME280;44389;51.578;5.456;2023-05-01T03:37:38;101379.22;;;9.03;99.08
58622;BME280;44389;51.578;5.456;2023-05-01T03:40:03;101381.78;;;9.03;98.34
58622;BME280;44389;51.578;5.456;2023-05-01T03:42:29;101379.06;;;9.00;98.52
58622;BME280;44389;51.578;5.456;2023-05-01T03:44:54;101380.03;;;9.02;98.04
58622;BME280;44389;51.578;5.456;2023-05-01T03:47:20;101374.06;;;9.03;98.77
58622;BME280;44389;51.578;5.456;2023-05-01T03:49:45;101375.00;;;9.05;97.17
58622;BME280;44389;51.578;5.456;2023-05-01T03:52:10;101373.50;;;9.10;96.05
58622;BME280;44389;51.578;5.456;2023-05-01T03:54:36;101370.81;;;9.07;96.01
58622;BME280;44389;51.578;5.456;2023-05-01T03:57:02;101369.22;;;9.09;96.13
58622;BME280;44389;51.578;5.456;2023-05-01T03:59:28;101365.69;;;9.07;97.20
58622;BME280;44389;51.578;5.456;2023-05-01T04:01:53;101361.63;;;9.12;96.39
58622;BME280;44389;51.578;5.456;2023-05-01T04:04:18;101363.22;;;9.10;95.73
58622;BME280;44389;51.578;5.456;2023-05-01T04:06:44;101363.22;;;9.10;97.25
58622;BME280;44389;51.578;5.456;2023-05-01T04:09:09;101373.44;;;9.09;96.51
58622;BME280;44389;51.578;5.456;2023-05-01T04:11:35;101365.78;;;9.10;95.69
58622;BME280;44389;51.578;5.456;2023-05-01T04:14:00;101362.34;;;9.10;97.85
58622;BME280;44389;51.578;5.456;2023-05-01T04:16:25;101363.91;;;9.06;100.00
58622;BME280;44389;51.578;5.456;2023-05-01T04:18:51;101363.84;;;9.04;100.00
58622;BME280;44389;51.578;5.456;2023-05-01T04:21:17;101357.69;;;9.01;100.00
58622;BME280;44389;51.578;5.456;2023-05-01T04:23:43;101356.81;;;9.00;100.00
58622;BME280;44389;51.578;5.456;2023-05-01T04:26:08;101350.78;;;9.00;100.00
58622;BME280;44389;51.578;5.456;2023-05-01T04:28:33;101356.81;;;9.00;100.00
58622;BME280;44389;51.578;5.456;2023-05-01T04:30:58;101358.44;;;8.98;100.00
58622;BME280;44389;51.578;5.456;2023-05-01T04:33:24;101359.31;;;8.99;99.59
58622;BME280;44389;51.578;5.456;2023-05-01T04:35:49;101356.06;;;9.03;99.07
58622;BME280;44389;51.578;5.456;2023-05-01T04:38:15;101355.31;;;9.05;98.48
58622;BME280;44389;51.578;5.456;2023-05-01T04:40:40;101361.63;;;9.12;97.88
58622;BME280;44389;51.578;5.456;2023-05-01T04:43:05;101365.16;;;9.14;98.51
58622;BME280;44389;51.578;5.456;2023-05-01T04:45:31;101373.09;;;9.20;98.77
58622;BME280;44389;51.578;5.456;2023-05-01T04:47:56;101371.59;;;9.26;99.03
58622;BME280;44389;51.578;5.456;2023-05-01T04:50:21;101370.53;;;9.20;99.40
58622;BME280;44389;51.578;5.456;2023-05-01T04:52:47;101371.44;;;9.21;97.53
58622;BME280;44389;51.578;5.456;2023-05-01T04:55:12;101371.44;;;9.21;99.30
58622;BME280;44389;51.578;5.456;2023-05-01T04:57:37;101373.38;;;9.27;98.35
58622;BME280;44389;51.578;5.456;2023-05-01T05:00:03;101369.78;;;9.23;100.00
58622;BME280;44389;51.578;5.456;2023-05-01T05:02:29;101367.16;;;9.21;99.09
58622;BME280;44389;51.578;5.456;2023-05-01T05:04:54;101360.66;;;9.30;97.61
58622;BME280;44389;51.578;5.456;2023-05-01T05:07:20;101358.09;;;9.30;97.38
58622;BME280;44389;51.578;5.456;2023-05-01T05:09:46;101357.34;;;9.32;97.97
58622;BME280;44389;51.578;5.456;2023-05-01T05:12:11;101357.53;;;9.37;98.16
58622;BME280;44389;51.578;5.456;2023-05-01T05:14:38;101353.34;;;9.39;96.95
58622;BME280;44389;51.578;5.456;2023-05-01T05:17:04;101359.66;;;9.47;96.41
58622;BME280;44389;51.578;5.456;2023-05-01T05:19:30;101363.22;;;9.49;97.96
58622;BME280;44389;51.578;5.456;2023-05-01T05:21:55;101362.72;;;9.58;98.13
58622;BME280;44389;51.578;5.456;2023-05-01T05:24:21;101360.31;;;9.63;98.09
58622;BME280;44389;51.578;5.456;2023-05-01T05:26:46;101359.72;;;9.68;97.64
58622;BME280;44389;51.578;5.456;2023-05-01T05:29:12;101358.31;;;9.77;96.46
58622;BME280;44389;51.578;5.456;2023-05-01T05:31:37;101355.06;;;9.81;96.64
58622;BME280;44389;51.578;5.456;2023-05-01T05:34:02;101357.00;;;9.86;95.77
58622;BME280;44389;51.578;5.456;2023-05-01T05:36:28;101361.47;;;9.91;95.82
58622;BME280;44389;51.578;5.456;2023-05-01T05:38:54;101362.53;;;9.96;95.06
58622;BME280;44389;51.578;5.456;2023-05-01T05:41:19;101357.63;;;10.02;97.00
58622;BME280;44389;51.578;5.456;2023-05-01T05:43:45;101361.19;;;10.05;96.20
58622;BME280;44389;51.578;5.456;2023-05-01T05:46:11;101352.03;;;10.12;94.39
58622;BME280;44389;51.578;5.456;2023-05-01T05:48:36;101355.72;;;10.19;94.15
58622;BME280;44389;51.578;5.456;2023-05-01T05:51:01;101358.72;;;10.30;94.83
58622;BME280;44389;51.578;5.456;2023-05-01T05:53:27;101351.34;;;10.39;94.17
58622;BME280;44389;51.578;5.456;2023-05-01T05:55:52;101361.34;;;10.52;94.92
58622;BME280;44389;51.578;5.456;2023-05-01T05:58:17;101359.09;;;10.62;92.10
58622;BME280;44389;51.578;5.456;2023-05-01T06:00:47;101354.19;;;10.68;90.75
58622;BME280;44389;51.578;5.456;2023-05-01T06:03:13;101346.59;;;10.73;90.25
58622;BME280;44389;51.578;5.456;2023-05-01T06:05:39;101343.25;;;10.75;90.37
58622;BME280;44389;51.578;5.456;2023-05-01T06:08:04;101341.91;;;10.85;90.17
58622;BME280;44389;51.578;5.456;2023-05-01T06:10:30;101344.84;;;10.96;91.08
58622;BME280;44389;51.578;5.456;2023-05-01T06:12:55;101341.84;;;10.83;88.54
58622;BME280;44389;51.578;5.456;2023-05-01T06:15:20;101343.88;;;10.92;88.67
58622;BME280;44389;51.578;5.456;2023-05-01T06:17:45;101348.47;;;11.01;88.11
58622;BME280;44389;51.578;5.456;2023-05-01T06:20:11;101350.16;;;10.99;90.80
58622;BME280;44389;51.578;5.456;2023-05-01T06:22:38;101352.41;;;11.15;88.81
58622;BME280;44389;51.578;5.456;2023-05-01T06:25:03;101351.66;;;11.18;87.23
58622;BME280;44389;51.578;5.456;2023-05-01T06:27:30;101349.47;;;11.29;87.70
58622;BME280;44389;51.578;5.456;2023-05-01T06:29:55;101343.63;;;11.34;86.67
58622;BME280;44389;51.578;5.456;2023-05-01T06:32:21;101344.41;;;11.32;84.97
58622;BME280;44389;51.578;5.456;2023-05-01T06:34:47;101345.47;;;11.39;85.64
58622;BME280;44389;51.578;5.456;2023-05-01T06:37:12;101345.88;;;11.49;85.87
58622;BME280;44389;51.578;5.456;2023-05-01T06:39:38;101345.81;;;11.48;84.45
58622;BME280;44389;51.578;5.456;2023-05-01T06:42:03;101342.28;;;11.46;83.24
58622;BME280;44389;51.578;5.456;2023-05-01T06:44:28;101347.47;;;11.46;83.13
58622;BME280;44389;51.578;5.456;2023-05-01T06:46:54;101346.47;;;11.42;83.39
58622;BME280;44389;51.578;5.456;2023-05-01T06:49:20;101346.50;;;11.44;83.86
58622;BME280;44389;51.578;5.456;2023-05-01T06:51:46;101337.38;;;11.79;85.17
58622;BME280;44389;51.578;5.456;2023-05-01T06:54:11;101337.59;;;11.85;83.41
58622;BME280;44389;51.578;5.456;2023-05-01T06:56:36;101343.63;;;12.13;82.24
58622;BME280;44389;51.578;5.456;2023-05-01T06:59:01;101337.00;;;12.22;81.89
58622;BME280;44389;51.578;5.456;2023-05-01T07:01:28;101337.09;;;12.25;81.96
58622;BME280;44389;51.578;5.456;2023-05-01T07:03:53;101330.66;;;12.41;82.06
58622;BME280;44389;51.578;5.456;2023-05-01T07:06:19;101336.06;;;12.48;81.17
58622;BME280;44389;51.578;5.456;2023-05-01T07:08:44;101338.00;;;12.56;80.36
58622;BME280;44389;51.578;5.456;2023-05-01T07:11:09;101344.75;;;12.50;82.09
58622;BME280;44389;51.578;5.456;2023-05-01T07:13:35;101341.28;;;12.79;82.12
58622;BME280;44389;51.578;5.456;2023-05-01T07:16:00;101338.91;;;12.87;82.09
58622;BME280;44389;51.578;5.456;2023-05-01T07:18:26;101335.94;;;13.05;81.67
58622;BME280;44389;51.578;5.456;2023-05-01T07:20:51;101336.31;;;13.18;79.75
58622;BME280;44389;51.578;5.456;2023-05-01T07:23:17;101339.91;;;13.24;80.46
58622;BME280;44389;51.578;5.456;2023-05-01T07:25:43;101338.19;;;13.24;78.78
58622;BME280;44389;51.578;5.456;2023-05-01T07:28:09;101334.38;;;13.42;81.09
58622;BME280;44389;51.578;5.456;2023-05-01T07:30:35;101338.59;;;13.38;78.18
58622;BME280;44389;51.578;5.456;2023-05-01T07:33:01;101335.03;;;13.36;80.14
58622;BME280;44389;51.578;5.456;2023-05-01T07:35:26;101341.75;;;13.28;79.02
58622;BME280;44389;51.578;5.456;2023-05-01T07:37:51;101338.91;;;13.50;79.20
58622;BME280;44389;51.578;5.456;2023-05-01T07:40:17;101340.63;;;13.52;79.31
58622;BME280;44389;51.578;5.456;2023-05-01T07:42:43;101339.28;;;13.66;81.22
58622;BME280;44389;51.578;5.456;2023-05-01T07:45:08;101345.53;;;13.74;81.12
58622;BME280;44389;51.578;5.456;2023-05-01T07:47:34;101335.50;;;13.88;80.24
58622;BME280;44389;51.578;5.456;2023-05-01T07:50:00;101339.94;;;13.94;77.77
58622;BME280;44389;51.578;5.456;2023-05-01T07:52:26;101341.13;;;14.07;77.95
58622;BME280;44389;51.578;5.456;2023-05-01T07:54:51;101337.94;;;14.20;79.97
58622;BME280;44389;51.578;5.456;2023-05-01T07:57:17;101346.47;;;14.14;77.59
58622;BME280;44389;51.578;5.456;2023-05-01T07:59:42;101341.94;;;14.44;75.03
58622;BME280;44389;51.578;5.456;2023-05-01T08:02:07;101344.50;;;14.42;76.06
58622;BME280;44389;51.578;5.456;2023-05-01T08:04:33;101349.69;;;14.42;75.90
58622;BME280;44389;51.578;5.456;2023-05-01T08:06:58;101339.78;;;14.64;78.01
58622;BME280;44389;51.578;5.456;2023-05-01T08:09:23;101342.50;;;14.70;76.27
58622;BME280;44389;51.578;5.456;2023-05-01T08:11:48;101339.09;;;14.73;75.43
58622;BME280;44389;51.578;5.456;2023-05-01T08:14:14;101339.50;;;14.93;76.37
58622;BME280;44389;51.578;5.456;2023-05-01T08:16:42;101339.66;;;15.01;75.57
58622;BME280;44389;51.578;5.456;2023-05-01T08:19:07;101341.41;;;15.02;74.11
58622;BME280;44389;51.578;5.456;2023-05-01T08:21:32;101334.66;;;15.11;73.79
58622;BME280;44389;51.578;5.456;2023-05-01T08:23:58;101331.59;;;15.33;74.60
58622;BME280;44389;51.578;5.456;2023-05-01T08:26:23;101331.88;;;15.48;73.75
58622;BME280;44389;51.578;5.456;2023-05-01T08:28:48;101332.97;;;15.62;72.52
58622;BME280;44389;51.578;5.456;2023-05-01T08:31:14;101329.47;;;15.62;71.27
58622;BME280;44389;51.578;5.456;2023-05-01T08:33:39;101329.34;;;15.53;68.26
58622;BME280;44389;51.578;5.456;2023-05-01T08:36:08;101327.56;;;15.52;66.42
58622;BME280;44389;51.578;5.456;2023-05-01T08:38:34;101322.91;;;15.81;68.10
58622;BME280;44389;51.578;5.456;2023-05-01T08:41:00;101327.00;;;16.25;68.74
58622;BME280;44389;51.578;5.456;2023-05-01T08:43:29;101328.88;;;16.35;65.72
58622;BME280;44389;51.578;5.456;2023-05-01T08:45:57;101328.25;;;16.55;68.33
58622;BME280;44389;51.578;5.456;2023-05-01T08:48:24;101330.84;;;16.55;65.53
58622;BME280;44389;51.578;5.456;2023-05-01T08:50:50;101327.50;;;16.65;67.17
58622;BME280;44389;51.578;5.456;2023-05-01T08:53:21;101334.56;;;16.72;66.05
58622;BME280;44389;51.578;5.456;2023-05-01T08:55:47;101332.81;;;16.71;65.94
58622;BME280;44389;51.578;5.456;2023-05-01T08:58:16;101337.16;;;16.74;65.22
58622;BME280;44389;51.578;5.456;2023-05-01T09:00:42;101341.47;;;16.70;65.10
58622;BME280;44389;51.578;5.456;2023-05-01T09:03:10;101341.56;;;16.78;64.84
58622;BME280;44389;51.578;5.456;2023-05-01T09:05:37;101340.59;;;16.68;63.92
58622;BME280;44389;51.578;5.456;2023-05-01T09:08:02;101341.50;;;16.73;64.25
58622;BME280;44389;51.578;5.456;2023-05-01T09:10:28;101336.06;;;16.55;64.65
58622;BME280;44389;51.578;5.456;2023-05-01T09:12:55;101334.66;;;16.82;64.29
58622;BME280;44389;51.578;5.456;2023-05-01T09:15:23;101339.22;;;16.97;64.66
58622;BME280;44389;51.578;5.456;2023-05-01T09:17:49;101333.63;;;16.67;62.97
58622;BME280;44389;51.578;5.456;2023-05-01T09:20:16;101336.16;;;16.62;62.54
58622;BME280;44389;51.578;5.456;2023-05-01T09:22:42;101340.16;;;17.03;64.92
58622;BME280;44389;51.578;5.456;2023-05-01T09:25:08;101331.66;;;17.20;65.25
58622;BME280;44389;51.578;5.456;2023-05-01T09:27:36;101338.78;;;17.41;62.78
58622;BME280;44389;51.578;5.456;2023-05-01T09:30:03;101335.31;;;17.43;58.26
58622;BME280;44389;51.578;5.456;2023-05-01T09:32:30;101336.44;;;17.72;58.99
58622;BME280;44389;51.578;5.456;2023-05-01T09:35:09;101339.25;;;17.95;59.90
58622;BME280;44389;51.578;5.456;2023-05-01T09:37:35;101340.06;;;17.91;58.33
58622;BME280;44389;51.578;5.456;2023-05-01T09:42:30;101334.38;;;18.62;54.21
58622;BME280;44389;51.578;5.456;2023-05-01T09:45:00;101335.44;;;19.08;57.03
58622;BME280;44389;51.578;5.456;2023-05-01T09:47:27;101334.59;;;19.25;53.16
58622;BME280;44389;51.578;5.456;2023-05-01T09:49:55;101332.03;;;19.82;54.07
58622;BME280;44389;51.578;5.456;2023-05-01T09:52:21;101331.13;;;19.49;51.18
58622;BME280;44389;51.578;5.456;2023-05-01T09:54:46;101330.22;;;20.18;50.26
58622;BME280;44389;51.578;5.456;2023-05-01T09:57:12;101333.53;;;20.64;48.09
58622;BME280;44389;51.578;5.456;2023-05-01T09:59:37;101333.25;;;21.19;47.42
58622;BME280;44389;51.578;5.456;2023-05-01T10:02:03;101332.19;;;21.47;45.17
58622;BME280;44389;51.578;5.456;2023-05-01T10:04:32;101340.16;;;22.29;44.63
58622;BME280;44389;51.578;5.456;2023-05-01T10:07:11;101339.59;;;22.04;46.49
58622;BME280;44389;51.578;5.456;2023-05-01T10:09:37;101339.13;;;21.57;45.65
58622;BME280;44389;51.578;5.456;2023-05-01T10:12:03;101337.53;;;21.34;47.06
58622;BME280;44389;51.578;5.456;2023-05-01T10:14:28;101338.78;;;20.62;45.66
58622;BME280;44389;51.578;5.456;2023-05-01T10:16:54;101339.72;;;20.52;47.90
58622;BME280;44389;51.578;5.456;2023-05-01T10:19:21;101337.91;;;20.60;49.75
58622;BME280;44389;51.578;5.456;2023-05-01T10:21:47;101339.69;;;20.58;48.97
58622;BME280;44389;51.578;5.456;2023-05-01T10:24:13;101336.16;;;20.59;47.56
58622;BME280;44389;51.578;5.456;2023-05-01T10:26:40;101336.81;;;21.11;48.71
58622;BME280;44389;51.578;5.456;2023-05-01T10:29:07;101339.72;;;21.90;47.54
58622;BME280;44389;51.578;5.456;2023-05-01T10:31:33;101343.31;;;21.80;46.21
58622;BME280;44389;51.578;5.456;2023-05-01T10:34:00;101344.00;;;22.00;46.25
58622;BME280;44389;51.578;5.456;2023-05-01T10:36:31;101357.28;;;21.83;45.18
58622;BME280;44389;51.578;5.456;2023-05-01T10:38:58;101347.00;;;21.51;45.38
58622;BME280;44389;51.578;5.456;2023-05-01T10:42:02;101350.56;;;21.44;46.86
58622;BME280;44389;51.578;5.456;2023-05-01T10:44:28;101343.72;;;21.26;47.12
58622;BME280;44389;51.578;5.456;2023-05-01T10:46:54;101346.50;;;20.99;46.75
58622;BME280;44389;51.578;5.456;2023-05-01T10:49:19;101355.31;;;20.80;46.91
58622;BME280;44389;51.578;5.456;2023-05-01T10:56:58;101348.47;;;20.37;49.18
58622;BME280;44389;51.578;5.456;2023-05-01T10:59:25;101354.59;;;20.28;49.62
58622;BME280;44389;51.578;5.456;2023-05-01T11:01:51;101349.19;;;20.87;50.23
58622;BME280;44389;51.578;5.456;2023-05-01T11:12:00;101351.28;;;21.66;44.29
58622;BME280;44389;51.578;5.456;2023-05-01T11:14:25;101349.91;;;22.18;45.63
58622;BME280;44389;51.578;5.456;2023-05-01T11:16:51;101350.72;;;22.26;45.00
58622;BME280;44389;51.578;5.456;2023-05-01T11:21:48;101349.84;;;22.27;45.38
58622;BME280;44389;51.578;5.456;2023-05-01T11:24:14;101354.19;;;22.30;43.32
58622;BME280;44389;51.578;5.456;2023-05-01T11:26:41;101356.78;;;22.31;43.01
58622;BME280;44389;51.578;5.456;2023-05-01T11:29:10;101362.13;;;22.24;42.06
58622;BME280;44389;51.578;5.456;2023-05-01T11:31:37;101351.72;;;22.91;40.30
58622;BME280;44389;51.578;5.456;2023-05-01T11:34:02;101356.44;;;23.28;40.59
58622;BME280;44389;51.578;5.456;2023-05-01T11:36:29;101353.59;;;23.42;39.56
58622;BME280;44389;51.578;5.456;2023-05-01T11:38:56;101356.75;;;23.05;39.14
58622;BME280;44389;51.578;5.456;2023-05-01T11:41:23;101363.88;;;22.96;40.52
58622;BME280;44389;51.578;5.456;2023-05-01T11:43:56;101359.56;;;22.92;40.73
58622;BME280;44389;51.578;5.456;2023-05-01T11:46:25;101360.25;;;23.07;40.63
58622;BME280;44389;51.578;5.456;2023-05-01T11:48:55;101357.16;;;23.39;40.20
58622;BME280;44389;51.578;5.456;2023-05-01T11:51:21;101362.66;;;23.24;38.91
58622;BME280;44389;51.578;5.456;2023-05-01T11:54:03;101367.25;;;23.08;39.01
58622;BME280;44389;51.578;5.456;2023-05-01T11:56:29;101367.41;;;22.95;39.32
58622;BME280;44389;51.578;5.456;2023-05-01T11:58:56;101358.47;;;23.09;39.17
58622;BME280;44389;51.578;5.456;2023-05-01T12:01:35;101360.41;;;23.57;41.07
58622;BME280;44389;51.578;5.456;2023-05-01T12:04:01;101366.16;;;23.24;39.47
58622;BME280;44389;51.578;5.456;2023-05-01T12:06:37;101369.09;;;24.13;39.61
58622;BME280;44389;51.578;5.456;2023-05-01T12:09:06;101367.94;;;23.77;38.24
58622;BME280;44389;51.578;5.456;2023-05-01T12:11:33;101373.22;;;23.75;37.30
58622;BME280;44389;51.578;5.456;2023-05-01T12:13:59;101361.25;;;24.54;38.47
58622;BME280;44389;51.578;5.456;2023-05-01T12:16:25;101367.63;;;23.97;37.87
58622;BME280;44389;51.578;5.456;2023-05-01T12:18:52;101373.94;;;23.30;36.13
58622;BME280;44389;51.578;5.456;2023-05-01T12:21:18;101373.16;;;22.58;37.18
58622;BME280;44389;51.578;5.456;2023-05-01T12:23:44;101371.63;;;22.35;40.00
58622;BME280;44389;51.578;5.456;2023-05-01T12:26:19;101362.50;;;22.69;40.77
58622;BME280;44389;51.578;5.456;2023-05-01T12:28:58;101362.00;;;23.05;39.61
58622;BME280;44389;51.578;5.456;2023-05-01T12:31:25;101357.81;;;24.05;38.12
58622;BME280;44389;51.578;5.456;2023-05-01T12:33:58;101364.44;;;24.28;35.67
58622;BME280;44389;51.578;5.456;2023-05-01T12:36:25;101367.94;;;23.77;37.23
58622;BME280;44389;51.578;5.456;2023-05-01T12:39:07;101361.22;;;23.60;35.26
58622;BME280;44389;51.578;5.456;2023-05-01T12:41:47;101363.47;;;23.82;36.78
58622;BME280;44389;51.578;5.456;2023-05-01T12:44:21;101364.94;;;24.47;34.40
58622;BME280;44389;51.578;5.456;2023-05-01T12:47:02;101365.38;;;24.69;34.08
58622;BME280;44389;51.578;5.456;2023-05-01T12:49:29;101360.47;;;24.49;33.93
58622;BME280;44389;51.578;5.456;2023-05-01T12:51:56;101359.22;;;24.25;33.52
58622;BME280;44389;51.578;5.456;2023-05-01T12:56:47;101368.94;;;24.21;35.94
58622;BME280;44389;51.578;5.456;2023-05-01T12:59:25;101373.06;;;23.86;35.49
58622;BME280;44389;51.578;5.456;2023-05-01T13:02:01;101362.31;;;23.45;36.01
58622;BME280;44389;51.578;5.456;2023-05-01T13:04:27;101361.31;;;22.93;34.72
58622;BME280;44389;51.578;5.456;2023-05-01T13:06:53;101371.56;;;23.12;36.52
58622;BME280;44389;51.578;5.456;2023-05-01T13:09:22;101362.34;;;23.44;37.26
58622;BME280;44389;51.578;5.456;2023-05-01T13:11:57;101362.94;;;23.61;37.30
58622;BME280;44389;51.578;5.456;2023-05-01T13:14:23;101369.78;;;24.23;38.16
58622;BME280;44389;51.578;5.456;2023-05-01T13:16:49;101377.84;;;24.14;37.59
58622;BME280;44389;51.578;5.456;2023-05-01T13:19:25;101372.94;;;23.95;38.56
58622;BME280;44389;51.578;5.456;2023-05-01T13:21:52;101385.84;;;24.09;37.00